International Virtual Aviation Organisation

Eastern Europe and Northern Asia MCD

 
UACK 131200Z 36004MPS 330V050 CAVOK 15/M01 Q1037 R20/090070 NOSIG RMK QFE754/1005
QNH:(hPa/inHg/mmHg)1037 / 30.62 / 778
QFE:(hPa/inHg/mmHg)1004 / 29.65 / 753
Temperature15
Dew Point-1
Visibility> 10000
WeatherCAVOK
Cloud Cover
Transition Height10000 m./33700 ft.
Transition LevelFL350
SQUAWK